Time;durP1;ratioP1;P1;durP2;ratioP2;P2;SDS_P1;SDS_P2;PMS_P1;PMS_P2;Temp;Humidity;BMP_temperature;BMP_pressure;BME280_temperature;BME280_humidity;BME280_pressure;Samples;Min_cycle;Max_cycle;Signal;HPM_P1;HPM_P2
2022/10/26 00:01:06;;;;;;;9.13;6.17;;;11.10;99.90;;;;;;5037733;28;20672;-41
2022/10/26 00:03:33;;;;;;;9.20;6.20;;;11.00;99.90;;;;;;5037979;28;20199;-41
2022/10/26 00:06:08;;;;;;;7.50;5.50;;;11.00;99.90;;;;;;5042987;28;20560;-41
2022/10/26 00:08:35;;;;;;;9.33;6.10;;;10.90;99.90;;;;;;5038426;28;20187;-44
2022/10/26 00:11:02;;;;;;;8.13;6.40;;;10.90;99.90;;;;;;5026512;28;20570;-44
2022/10/26 00:13:29;;;;;;;7.87;5.77;;;10.80;99.90;;;;;;5037729;28;20206;-42
2022/10/26 00:15:57;;;;;;;10.00;6.03;;;;;;;;;;5037561;28;20215;-42
2022/10/26 00:18:24;;;;;;;7.60;5.30;;;10.70;99.90;;;;;;5040450;28;20203;-43
2022/10/26 00:20:51;;;;;;;7.20;6.27;;;10.70;99.90;;;;;;5045134;28;20206;-43
2022/10/26 00:23:18;;;;;;;10.70;6.00;;;10.60;99.90;;;;;;5043985;28;20256;-41
2022/10/26 00:25:53;;;;;;;8.07;6.23;;;10.60;99.90;;;;;;5044158;28;20187;-42
2022/10/26 00:28:19;;;;;;;8.07;6.27;;;10.50;99.90;;;;;;5028562;28;20206;-42
2022/10/26 00:30:46;;;;;;;10.43;6.43;;;10.50;99.90;;;;;;5038766;28;20265;-42
2022/10/26 00:33:14;;;;;;;9.13;5.97;;;10.50;99.90;;;;;;5044973;28;20219;-43
2022/10/26 00:35:41;;;;;;;9.47;7.03;;;10.50;99.90;;;;;;5043331;28;20230;-44
2022/10/26 00:38:08;;;;;;;6.30;5.57;;;10.50;99.90;;;;;;5045816;28;20286;-42
2022/10/26 00:40:35;;;;;;;11.83;5.90;;;10.50;99.90;;;;;;5042025;28;20967;-41
2022/10/26 00:43:01;;;;;;;9.57;6.17;;;10.60;99.90;;;;;;5029288;28;20226;-42
2022/10/26 00:45:30;;;;;;;8.07;6.17;;;10.60;99.90;;;;;;5041833;28;20191;-41
2022/10/26 00:48:00;;;;;;;10.33;6.27;;;10.50;99.90;;;;;;5040596;28;20207;-44
2022/10/26 00:50:31;;;;;;;10.67;5.57;;;10.40;99.90;;;;;;5043105;28;20195;-42
2022/10/26 00:53:02;;;;;;;6.70;5.43;;;10.30;99.90;;;;;;5045809;28;20230;-43
2022/10/26 00:55:34;;;;;;;7.93;6.63;;;10.30;99.90;;;;;;5041338;28;20226;-45
2022/10/26 00:58:03;;;;;;;8.73;6.07;;;10.30;99.90;;;;;;5029056;28;20203;-46
2022/10/26 01:00:30;;;;;;;10.27;6.70;;;10.20;99.90;;;;;;5041676;28;20191;-44
2022/10/26 01:03:00;;;;;;;8.63;6.27;;;10.20;99.90;;;;;;5040624;28;20623;-42
2022/10/26 01:05:29;;;;;;;8.87;6.27;;;10.20;99.90;;;;;;5032856;28;20202;-41
2022/10/26 01:07:56;;;;;;;10.23;6.00;;;10.20;99.90;;;;;;5044549;28;20199;-40
2022/10/26 01:10:24;;;;;;;10.23;6.53;;;10.30;99.90;;;;;;5042943;28;20195;-41
2022/10/26 01:12:52;;;;;;;10.07;5.73;;;10.30;99.90;;;;;;5044240;28;20548;-47
2022/10/26 01:15:20;;;;;;;7.37;5.47;;;10.30;99.90;;;;;;5024921;28;20220;-44
2022/10/26 01:17:56;;;;;;;10.60;5.67;;;10.30;99.90;;;;;;5038477;28;20211;-43
2022/10/26 01:21:01;;;;;;;8.37;5.17;;;10.20;99.90;;;;;;5031638;28;20199;-41
2022/10/26 01:23:33;;;;;;;11.93;6.23;;;10.10;99.90;;;;;;5035182;28;20296;-41
2022/10/26 01:26:25;;;;;;;6.63;5.67;;;10.10;99.90;;;;;;5038621;28;20565;-41
2022/10/26 01:29:09;;;;;;;6.50;5.87;;;10.00;99.90;;;;;;5039326;28;20676;-42
2022/10/26 01:31:41;;;;;;;7.97;5.60;;;9.90;99.90;;;;;;5031755;28;20227;-43
2022/10/26 01:34:12;;;;;;;8.17;5.40;;;9.90;99.90;;;;;;5037692;28;20202;-42
2022/10/26 01:36:43;;;;;;;8.07;5.87;;;9.80;99.90;;;;;;5043229;28;20405;-41
2022/10/26 01:39:16;;;;;;;10.40;6.80;;;9.80;99.90;;;;;;5043257;28;20657;-44
2022/10/26 01:41:47;;;;;;;8.07;5.80;;;9.80;99.90;;;;;;5043964;28;20226;-42
2022/10/26 01:44:18;;;;;;;8.60;6.43;;;9.80;99.90;;;;;;5030407;28;20195;-42
2022/10/26 01:46:49;;;;;;;10.50;6.63;;;9.80;99.90;;;;;;5042654;28;20664;-40
2022/10/26 01:49:19;;;;;;;10.93;5.70;;;9.80;99.90;;;;;;5038762;28;20203;-40
2022/10/26 01:51:48;;;;;;;11.50;6.17;;;9.70;99.90;;;;;;5044775;28;20225;-44
2022/10/26 01:54:15;;;;;;;9.03;5.60;;;9.70;99.90;;;;;;5040800;28;20214;-40
2022/10/26 01:56:46;;;;;;;8.37;5.63;;;9.70;99.90;;;;;;5043729;28;20278;-45
2022/10/26 01:59:31;;;;;;;8.93;6.37;;;9.60;99.90;;;;;;5032227;28;20653;-41
2022/10/26 02:02:38;;;;;;;11.30;5.93;;;9.70;99.90;;;;;;5044347;28;20222;-42
2022/10/26 02:05:28;;;;;;;6.60;5.90;;;9.60;99.90;;;;;;5031412;28;20282;-43
2022/10/26 02:08:04;;;;;;;8.93;5.87;;;9.60;99.90;;;;;;5039764;28;20206;-42
2022/10/26 02:10:43;;;;;;;9.30;6.53;;;9.50;99.90;;;;;;5038062;28;20914;-41
2022/10/26 02:13:17;;;;;;;7.90;6.13;;;9.60;99.90;;;;;;5042046;28;20215;-43
2022/10/26 02:15:52;;;;;;;10.13;6.10;;;9.50;99.90;;;;;;5021672;28;20223;-41
2022/10/26 02:18:29;;;;;;;8.83;6.03;;;9.50;99.90;;;;;;5040534;28;20195;-44
2022/10/26 02:21:00;;;;;;;10.23;6.63;;;9.40;99.90;;;;;;5038911;28;20655;-41
2022/10/26 02:23:29;;;;;;;12.77;6.53;;;9.40;99.90;;;;;;5039500;28;20278;-44
2022/10/26 02:25:59;;;;;;;11.67;6.30;;;9.40;99.90;;;;;;5043866;28;20202;-42
2022/10/26 02:28:32;;;;;;;8.47;6.77;;;9.40;99.90;;;;;;5040066;28;20191;-41
2022/10/26 02:31:02;;;;;;;12.03;6.83;;;9.30;99.90;;;;;;5027796;28;20255;-41
2022/10/26 02:33:34;;;;;;;10.53;6.57;;;9.30;99.90;;;;;;5039314;28;20199;-41
2022/10/26 02:36:07;;;;;;;9.53;5.93;;;9.30;99.90;;;;;;5039094;28;20584;-43
2022/10/26 02:38:35;;;;;;;7.60;6.20;;;9.30;99.90;;;;;;5041154;28;20194;-42
2022/10/26 02:41:04;;;;;;;12.00;6.07;;;9.30;99.90;;;;;;5043093;28;20195;-44
2022/10/26 02:43:35;;;;;;;8.30;5.97;;;9.30;99.90;;;;;;5033167;28;20225;-44
2022/10/26 02:46:06;;;;;;;11.07;6.83;;;9.30;99.90;;;;;;5043186;28;20199;-42
2022/10/26 02:48:35;;;;;;;9.90;6.13;;;9.30;99.90;;;;;;5031775;28;20882;-41
2022/10/26 02:51:09;;;;;;;13.17;6.63;;;9.30;99.90;;;;;;5043291;28;20206;-41
2022/10/26 02:53:45;;;;;;;10.20;6.50;;;9.30;99.90;;;;;;5037007;28;20199;-41
2022/10/26 02:56:18;;;;;;;9.97;6.53;;;9.30;99.90;;;;;;5041522;28;20226;-41
2022/10/26 02:58:51;;;;;;;10.43;6.13;;;9.30;99.90;;;;;;5042956;28;20200;-44
2022/10/26 03:01:18;;;;;;;10.77;6.77;;;9.30;99.90;;;;;;5026463;28;20545;-44
2022/10/26 03:03:48;;;;;;;10.63;7.07;;;9.20;99.90;;;;;;5042491;28;20207;-42
2022/10/26 03:06:21;;;;;;;8.40;5.77;;;9.20;99.90;;;;;;5032117;28;20653;-43
2022/10/26 03:08:48;;;;;;;11.57;6.33;;;9.20;99.90;;;;;;5041332;28;20195;-42
2022/10/26 03:11:15;;;;;;;12.20;6.83;;;9.20;99.90;;;;;;5039936;28;20278;-42
2022/10/26 03:13:42;;;;;;;10.03;7.47;;;9.20;99.90;;;;;;5041367;28;20199;-42
2022/10/26 03:16:08;;;;;;;8.33;6.50;;;9.20;99.90;;;;;;5041498;28;20222;-42
2022/10/26 03:18:35;;;;;;;9.33;6.37;;;9.30;99.90;;;;;;5025068;28;20286;-43
2022/10/26 03:21:03;;;;;;;11.07;7.27;;;9.20;99.90;;;;;;5042598;28;20218;-43
2022/10/26 03:23:31;;;;;;;10.53;6.83;;;9.20;99.90;;;;;;5034010;28;20194;-43
2022/10/26 03:25:58;;;;;;;13.03;6.27;;;9.20;99.90;;;;;;5042894;28;20571;-41
2022/10/26 03:28:25;;;;;;;9.33;6.43;;;9.20;99.90;;;;;;5038960;28;20188;-44
2022/10/26 03:30:51;;;;;;;9.80;6.37;;;9.20;99.90;;;;;;5043135;28;20218;-44
2022/10/26 03:33:18;;;;;;;13.87;6.70;;;9.20;99.90;;;;;;5024879;28;20268;-42
2022/10/26 03:35:45;;;;;;;8.77;6.57;;;9.20;99.90;;;;;;5041168;28;20226;-42
2022/10/26 03:38:13;;;;;;;10.27;7.00;;;9.20;99.90;;;;;;5027048;28;20207;-42
2022/10/26 03:40:40;;;;;;;10.03;6.67;;;9.20;99.90;;;;;;5043050;28;20262;-42
2022/10/26 03:43:07;;;;;;;10.67;7.00;;;9.20;99.90;;;;;;5034174;28;20234;-42
2022/10/26 03:45:34;;;;;;;9.67;6.50;;;9.20;99.90;;;;;;5040986;28;20202;-42
2022/10/26 03:48:00;;;;;;;10.80;6.40;;;9.20;99.90;;;;;;5041271;28;20203;-44
2022/10/26 03:50:27;;;;;;;10.27;7.57;;;9.20;99.90;;;;;;5024393;28;20327;-43
2022/10/26 03:52:54;;;;;;;7.13;6.43;;;9.10;99.90;;;;;;5042062;28;20219;-42
2022/10/26 03:55:22;;;;;;;8.80;6.37;;;9.10;99.90;;;;;;5033909;28;20197;-44
2022/10/26 03:57:48;;;;;;;7.30;6.53;;;9.10;99.90;;;;;;5046048;28;20696;-42
2022/10/26 04:00:17;;;;;;;11.00;6.43;;;9.10;99.90;;;;;;5026454;28;20904;-45
2022/10/26 04:02:47;;;;;;;10.20;7.20;;;9.00;99.90;;;;;;5036638;28;20226;-43
2022/10/26 04:05:15;;;;;;;6.77;6.07;;;9.00;99.90;;;;;;5016759;28;20206;-45
2022/10/26 04:07:42;;;;;;;9.97;6.17;;;9.00;99.90;;;;;;5038470;28;20223;-45
2022/10/26 04:10:09;;;;;;;8.07;6.47;;;8.90;99.90;;;;;;5032201;28;20207;-45
2022/10/26 04:12:38;;;;;;;12.93;7.20;;;8.90;99.90;;;;;;5042675;28;20633;-43
2022/10/26 04:15:06;;;;;;;10.63;7.00;;;8.90;99.90;;;;;;5032730;28;20214;-46
2022/10/26 04:17:33;;;;;;;11.87;6.53;;;8.80;99.90;;;;;;5043273;28;20218;-46
2022/10/26 04:19:59;;;;;;;8.90;6.27;;;8.80;99.90;;;;;;5038038;28;20208;-44
2022/10/26 04:22:26;;;;;;;9.97;6.70;;;8.80;99.90;;;;;;5029875;28;20234;-42
2022/10/26 04:24:53;;;;;;;11.07;6.73;;;8.80;99.90;;;;;;5038388;28;20203;-45
2022/10/26 04:27:20;;;;;;;10.40;6.60;;;8.80;99.90;;;;;;5032262;28;20991;-42
2022/10/26 04:29:48;;;;;;;9.57;6.50;;;8.80;99.90;;;;;;5040697;28;20203;-42
2022/10/26 04:32:15;;;;;;;8.47;6.23;;;8.80;99.90;;;;;;5040490;28;20222;-42
2022/10/26 04:34:42;;;;;;;9.33;6.10;;;8.80;99.90;;;;;;5041182;28;20203;-44
2022/10/26 04:37:08;;;;;;;10.27;6.70;;;8.70;99.90;;;;;;5022633;28;22236;-45
2022/10/26 04:39:35;;;;;;;11.17;6.90;;;8.70;99.90;;;;;;5042862;28;20571;-45
2022/10/26 04:42:02;;;;;;;10.27;7.10;;;8.80;99.90;;;;;;5027548;28;20227;-43
2022/10/26 04:44:29;;;;;;;11.50;7.93;;;8.80;99.90;;;;;;5039741;28;20198;-43
2022/10/26 04:46:56;;;;;;;11.07;7.47;;;8.70;99.90;;;;;;5037206;28;20200;-46
2022/10/26 04:49:23;;;;;;;9.30;7.73;;;8.70;99.90;;;;;;5036758;28;20218;-42
2022/10/26 04:51:50;;;;;;;11.97;7.10;;;8.70;99.90;;;;;;5036332;28;20586;-43
2022/10/26 04:54:16;;;;;;;12.47;8.43;;;8.80;99.90;;;;;;5020283;28;20211;-44
2022/10/26 04:56:43;;;;;;;11.87;7.50;;;8.70;99.90;;;;;;5045396;28;20223;-46
2022/10/26 04:59:10;;;;;;;12.73;7.60;;;8.80;99.90;;;;;;5030118;28;20215;-43
2022/10/26 05:01:36;;;;;;;10.53;8.10;;;8.80;99.90;;;;;;5040543;28;20226;-43
2022/10/26 05:04:05;;;;;;;10.23;6.80;;;8.70;99.90;;;;;;5036552;28;20200;-44
2022/10/26 05:06:31;;;;;;;9.67;6.83;;;8.70;99.90;;;;;;5039327;28;20285;-47
2022/10/26 05:08:58;;;;;;;11.53;7.80;;;9.00;99.90;;;;;;5015100;28;20215;-42
2022/10/26 05:11:24;;;;;;;13.67;7.63;;;8.60;99.90;;;;;;5040992;28;20253;-42
2022/10/26 05:13:51;;;;;;;11.57;7.43;;;8.60;99.90;;;;;;5032039;28;20293;-48
2022/10/26 05:16:18;;;;;;;15.33;8.03;;;8.50;99.90;;;;;;5035921;28;20211;-44
2022/10/26 05:18:48;;;;;;;14.20;8.27;;;8.60;99.90;;;;;;5033308;28;20199;-43
2022/10/26 05:21:18;;;;;;;12.10;8.10;;;8.50;99.90;;;;;;5034375;28;20246;-45
2022/10/26 05:23:50;;;;;;;14.93;8.00;;;8.50;99.90;;;;;;5017776;28;20211;-48
2022/10/26 05:26:17;;;;;;;14.93;8.00;;;8.50;99.90;;;;;;5036533;28;20199;-44
2022/10/26 05:28:43;;;;;;;14.40;8.07;;;8.50;99.90;;;;;;5030294;28;20211;-44
2022/10/26 05:31:10;;;;;;;14.70;7.63;;;8.50;99.90;;;;;;5034154;28;20211;-45
2022/10/26 05:33:37;;;;;;;11.90;7.83;;;8.60;99.90;;;;;;5029778;28;20286;-47
2022/10/26 05:36:04;;;;;;;15.23;8.07;;;8.60;99.90;;;;;;5025916;28;20203;-45
2022/10/26 05:38:32;;;;;;;10.53;8.03;;;8.50;99.90;;;;;;5022488;28;21597;-46
2022/10/26 05:41:00;;;;;;;11.93;8.07;;;8.60;99.90;;;;;;5036085;28;20214;-49
2022/10/26 05:43:27;;;;;;;14.17;9.10;;;8.60;99.90;;;;;;5037616;28;20195;-47
2022/10/26 05:45:54;;;;;;;14.33;8.40;;;8.50;99.90;;;;;;5038099;28;20203;-44
2022/10/26 05:48:21;;;;;;;11.53;8.27;;;8.50;99.90;;;;;;5036389;28;20206;-46
2022/10/26 05:50:47;;;;;;;12.73;8.43;;;8.50;99.90;;;;;;5041194;28;20234;-50
2022/10/26 05:53:14;;;;;;;14.10;8.43;;;8.50;99.90;;;;;;5029928;28;20238;-45
2022/10/26 05:55:43;;;;;;;15.03;9.00;;;8.50;99.90;;;;;;5030873;28;20210;-45
2022/10/26 05:58:12;;;;;;;14.00;8.03;;;8.50;99.90;;;;;;5034734;28;20231;-45
2022/10/26 06:00:47;;;;;;;20.90;9.57;;;8.50;99.90;;;;;;5035046;28;21669;-44
2022/10/26 06:03:25;;;;;;;15.93;8.87;;;8.50;99.90;;;;;;5036004;28;20291;-43
2022/10/26 06:05:57;;;;;;;16.07;8.47;;;8.50;99.90;;;;;;5036070;28;20207;-46
2022/10/26 06:08:26;;;;;;;14.93;8.47;;;8.50;99.90;;;;;;5035374;28;20195;-47
2022/10/26 06:10:58;;;;;;;15.23;9.27;;;8.50;99.90;;;;;;5023459;28;20217;-43
2022/10/26 06:13:25;;;;;;;15.40;9.03;;;8.50;99.90;;;;;;5030135;28;20226;-45
2022/10/26 06:16:08;;;;;;;14.03;8.83;;;8.50;99.90;;;;;;5030828;28;20663;-45
2022/10/26 06:18:45;;;;;;;17.37;9.97;;;8.50;99.90;;;;;;5027044;28;20214;-44
2022/10/26 06:21:27;;;;;;;15.07;9.57;;;8.50;99.90;;;;;;5038989;28;20202;-48
2022/10/26 06:24:02;;;;;;;15.00;8.83;;;8.50;99.90;;;;;;5034415;28;20202;-43
2022/10/26 06:26:41;;;;;;;14.20;9.60;;;8.50;99.90;;;;;;5021223;28;21002;-44
2022/10/26 06:29:22;;;;;;;16.70;9.27;;;8.40;99.90;;;;;;5041744;28;20664;-46
2022/10/26 06:31:50;;;;;;;16.83;10.10;;;8.50;99.90;;;;;;5034364;28;20250;-44
2022/10/26 06:34:25;;;;;;;14.97;10.23;;;8.50;99.90;;;;;;5023040;28;20204;-46
2022/10/26 06:36:53;;;;;;;16.50;10.97;;;8.50;99.90;;;;;;5035873;28;20211;-44
2022/10/26 06:39:20;;;;;;;16.03;11.33;;;8.50;99.90;;;;;;5026265;28;20207;-44
2022/10/26 06:41:51;;;;;;;16.93;11.20;;;8.50;99.90;;;;;;5025438;28;20700;-45
2022/10/26 06:44:23;;;;;;;20.87;11.27;;;8.60;99.90;;;;;;5037238;28;20221;-50
2022/10/26 06:46:56;;;;;;;22.13;11.67;;;8.60;99.90;;;;;;5032698;28;20192;-45
2022/10/26 06:49:29;;;;;;;19.03;11.33;;;8.60;99.90;;;;;;5018364;28;20326;-46
2022/10/26 06:51:59;;;;;;;16.23;11.20;;;8.60;99.90;;;;;;5033664;28;20226;-44
2022/10/26 06:54:33;;;;;;;18.17;11.60;;;8.70;99.90;;;;;;5029464;28;20873;-43
2022/10/26 06:57:01;;;;;;;18.20;10.50;;;8.80;99.90;;;;;;5017392;28;20720;-45
2022/10/26 06:59:37;;;;;;;17.90;10.50;;;8.80;99.90;;;;;;5027274;28;20215;-45
2022/10/26 07:02:04;;;;;;;22.53;11.53;;;8.80;99.90;;;;;;5026939;28;20276;-46
2022/10/26 07:04:30;;;;;;;16.47;11.27;;;8.90;99.90;;;;;;5017443;28;20331;-46
2022/10/26 07:06:57;;;;;;;19.77;10.60;;;8.90;99.90;;;;;;5015814;28;20195;-45
2022/10/26 07:09:24;;;;;;;18.63;11.40;;;9.00;99.90;;;;;;5030882;28;20207;-43
2022/10/26 07:11:51;;;;;;;18.63;11.83;;;9.00;99.90;;;;;;5004518;28;22074;-44
2022/10/26 07:14:19;;;;;;;17.50;11.40;;;9.10;99.90;;;;;;5039013;28;20714;-44
2022/10/26 07:16:45;;;;;;;20.67;11.03;;;9.10;99.90;;;;;;5031900;28;20237;-43
2022/10/26 07:19:12;;;;;;;20.37;11.80;;;9.20;99.90;;;;;;5040194;28;20202;-44
2022/10/26 07:21:39;;;;;;;18.30;12.00;;;9.30;99.90;;;;;;5033577;28;20610;-43
2022/10/26 07:24:06;;;;;;;17.57;11.80;;;9.30;99.90;;;;;;5035967;28;20207;-43
2022/10/26 07:26:33;;;;;;;22.77;12.60;;;9.40;99.90;;;;;;5027225;28;20203;-45
2022/10/26 07:29:00;;;;;;;21.73;13.30;;;9.50;99.90;;;;;;5022501;28;20199;-43
2022/10/26 07:31:28;;;;;;;23.53;12.67;;;9.50;99.90;;;;;;5033293;28;20707;-44
2022/10/26 07:33:55;;;;;;;17.77;11.90;;;9.60;99.90;;;;;;5027179;28;20211;-45
2022/10/26 07:36:22;;;;;;;19.80;12.33;;;9.60;99.90;;;;;;5036148;28;20199;-46
2022/10/26 07:38:51;;;;;;;19.50;12.37;;;9.70;99.90;;;;;;5031976;28;20222;-44
2022/10/26 07:41:18;;;;;;;19.73;12.00;;;9.80;99.90;;;;;;5027940;28;20216;-45
2022/10/26 07:43:45;;;;;;;22.97;13.20;;;9.90;99.90;;;;;;5021606;28;20222;-49
2022/10/26 07:46:12;;;;;;;19.97;12.43;;;10.00;99.90;;;;;;5033098;28;20204;-43
2022/10/26 07:48:41;;;;;;;19.17;12.20;;;10.00;99.90;;;;;;5026800;28;20195;-46
2022/10/26 07:51:09;;;;;;;19.07;13.00;;;10.10;99.90;;;;;;5028339;28;20215;-46
2022/10/26 07:53:36;;;;;;;21.30;12.33;;;10.20;99.90;;;;;;5026236;28;20219;-43
2022/10/26 07:56:03;;;;;;;18.37;11.83;;;10.20;99.90;;;;;;5031535;28;20652;-44
2022/10/26 07:58:31;;;;;;;17.07;12.03;;;10.30;99.90;;;;;;5010295;28;20215;-44
2022/10/26 08:01:05;;;;;;;20.40;12.47;;;10.40;99.90;;;;;;5034196;28;20242;-47
2022/10/26 08:03:31;;;;;;;18.50;12.57;;;10.40;99.90;;;;;;5024551;28;20940;-43
2022/10/26 08:06:00;;;;;;;24.10;11.53;;;10.50;99.90;;;;;;5027079;28;20215;-46
2022/10/26 08:08:27;;;;;;;17.87;11.67;;;10.60;99.90;;;;;;5017664;28;21161;-43
2022/10/26 08:10:53;;;;;;;15.97;10.97;;;10.70;99.90;;;;;;5031973;28;20210;-44
2022/10/26 08:13:20;;;;;;;18.17;10.80;;;10.80;99.90;;;;;;5021344;28;20227;-46
2022/10/26 08:15:47;;;;;;;18.07;11.37;;;10.80;99.90;;;;;;5023587;28;20207;-43
2022/10/26 08:18:14;;;;;;;16.47;10.73;;;10.90;99.90;;;;;;5030862;28;20330;-45
2022/10/26 08:20:40;;;;;;;17.27;11.23;;;11.00;99.90;;;;;;5031798;28;20195;-44
2022/10/26 08:23:08;;;;;;;19.33;11.53;;;11.10;99.90;;;;;;5027764;28;20593;-43
2022/10/26 08:25:36;;;;;;;17.00;11.40;;;11.20;99.90;;;;;;5027402;28;20202;-47
2022/10/26 08:28:03;;;;;;;16.87;11.27;;;11.30;99.90;;;;;;5024383;28;20199;-43
2022/10/26 08:30:31;;;;;;;14.80;10.50;;;11.40;99.90;;;;;;5015836;28;20219;-44
2022/10/26 08:33:01;;;;;;;16.80;10.83;;;11.50;99.90;;;;;;5025250;28;20242;-44
2022/10/26 08:35:28;;;;;;;16.90;10.67;;;11.50;99.90;;;;;;5033588;28;20662;-46
2022/10/26 08:37:55;;;;;;;19.37;10.83;;;11.60;99.90;;;;;;5030843;28;20910;-46
2022/10/26 08:40:26;;;;;;;15.37;10.57;;;11.60;99.90;;;;;;5031552;28;20550;-47
2022/10/26 08:42:56;;;;;;;14.70;9.57;;;;;;;;;;5034026;28;20478;-43
2022/10/26 08:45:27;;;;;;;15.63;9.63;;;11.80;99.90;;;;;;5021748;28;20211;-46
2022/10/26 08:47:58;;;;;;;15.57;9.20;;;11.90;99.90;;;;;;5028945;28;20908;-45
2022/10/26 08:50:31;;;;;;;16.60;10.30;;;11.90;99.90;;;;;;5037475;28;20283;-46
2022/10/26 08:53:03;;;;;;;14.60;9.10;;;12.00;99.90;;;;;;5030892;28;20939;-42
2022/10/26 08:55:39;;;;;;;12.27;10.10;;;12.20;99.90;;;;;;5029431;28;20257;-45
2022/10/26 08:58:14;;;;;;;13.60;9.07;;;12.40;99.90;;;;;;5030476;28;21197;-45
2022/10/26 09:00:41;;;;;;;15.43;8.77;;;12.50;99.90;;;;;;5022000;28;20698;-45
2022/10/26 09:03:13;;;;;;;16.07;9.40;;;12.70;99.90;;;;;;5027969;28;20231;-42
2022/10/26 09:05:53;;;;;;;13.67;8.57;;;12.80;99.90;;;;;;5040681;28;20208;-45
2022/10/26 09:08:31;;;;;;;9.53;7.93;;;12.90;99.90;;;;;;5031280;28;20199;-46
2022/10/26 09:11:08;;;;;;;10.00;8.30;;;12.90;99.90;;;;;;5027704;28;20195;-46
2022/10/26 09:13:47;;;;;;;10.33;6.90;;;13.00;99.90;;;;;;5034513;28;20282;-44
2022/10/26 09:16:25;;;;;;;11.33;7.10;;;13.10;99.90;;;;;;5015332;28;20289;-43
2022/10/26 09:19:03;;;;;;;12.77;7.37;;;13.20;99.90;;;;;;5025131;28;20231;-47
2022/10/26 09:21:40;;;;;;;11.97;6.73;;;13.20;99.90;;;;;;5033608;28;20227;-46
2022/10/26 09:24:14;;;;;;;9.37;6.93;;;13.30;99.90;;;;;;5029257;28;20205;-45
2022/10/26 09:26:54;;;;;;;12.00;7.30;;;13.40;99.90;;;;;;5034840;28;20239;-46
2022/10/26 09:29:26;;;;;;;9.57;6.23;;;13.40;99.90;;;;;;5032023;28;20206;-47
2022/10/26 09:31:55;;;;;;;7.50;6.27;;;13.50;99.90;;;;;;5016004;28;20223;-44
2022/10/26 09:34:31;;;;;;;9.80;5.97;;;13.60;99.90;;;;;;5039310;28;20261;-42
2022/10/26 09:36:58;;;;;;;10.83;6.40;;;13.70;99.90;;;;;;5031444;28;20203;-43
2022/10/26 09:39:36;;;;;;;10.47;6.10;;;13.80;99.90;;;;;;5031574;28;20219;-45
2022/10/26 09:42:12;;;;;;;8.00;5.73;;;13.80;99.90;;;;;;5034448;28;20276;-47
2022/10/26 09:44:44;;;;;;;7.77;5.20;;;13.90;99.90;;;;;;5034944;28;20203;-45
2022/10/26 09:47:20;;;;;;;9.97;5.83;;;14.00;99.90;;;;;;5019251;28;20242;-45
2022/10/26 09:49:53;;;;;;;5.90;4.43;;;14.10;99.90;;;;;;5039462;28;20209;-42
2022/10/26 09:52:20;;;;;;;6.23;4.37;;;14.20;99.90;;;;;;5038799;28;20219;-44
2022/10/26 09:54:47;;;;;;;7.27;4.30;;;14.20;99.90;;;;;;5029750;28;20206;-44
2022/10/26 09:57:19;;;;;;;9.90;4.83;;;14.30;99.90;;;;;;5031820;28;20210;-43
2022/10/26 09:59:48;;;;;;;84.13;25.57;;;14.40;99.90;;;;;;5033562;28;20215;-47
2022/10/26 10:02:38;;;;;;;10.37;5.70;;;14.50;99.90;;;;;;5033114;28;20219;-43
2022/10/26 10:05:28;;;;;;;5.93;3.33;;;14.50;99.90;;;;;;5041551;28;20566;-41
2022/10/26 10:08:14;;;;;;;7.90;3.60;;;14.50;99.90;;;;;;5041325;28;20456;-45
2022/10/26 10:10:57;;;;;;;5.77;3.10;;;14.60;99.90;;;;;;5017033;28;20213;-43
2022/10/26 10:13:28;;;;;;;6.10;3.47;;;14.70;99.90;;;;;;5025030;28;20274;-43
2022/10/26 10:16:04;;;;;;;4.03;3.10;;;14.70;99.90;;;;;;5034783;28;20203;-48
2022/10/26 10:18:32;;;;;;;3.90;2.93;;;14.80;99.90;;;;;;5014931;28;20764;-44
2022/10/26 10:20:59;;;;;;;4.93;2.60;;;14.80;99.90;;;;;;5038860;28;20211;-42
2022/10/26 10:23:29;;;;;;;3.27;2.83;;;14.90;99.90;;;;;;5038559;28;20664;-45
2022/10/26 10:26:01;;;;;;;5.23;3.00;;;15.00;99.90;;;;;;5028033;28;20212;-44
2022/10/26 10:28:29;;;;;;;5.87;2.73;;;15.00;99.90;;;;;;5039147;28;20191;-44
2022/10/26 10:30:59;;;;;;;5.50;3.03;;;15.10;99.90;;;;;;5041618;28;20202;-43
2022/10/26 10:33:34;;;;;;;4.43;2.97;;;15.10;99.90;;;;;;5019689;28;20236;-46
2022/10/26 10:36:04;;;;;;;4.10;2.50;;;15.20;99.90;;;;;;5038170;28;20208;-43
2022/10/26 10:38:37;;;;;;;5.73;2.70;;;15.20;99.90;;;;;;5029118;28;20219;-43
2022/10/26 10:41:06;;;;;;;8.70;4.07;;;15.30;99.90;;;;;;5029555;28;20207;-42
2022/10/26 10:43:34;;;;;;;2.77;2.57;;;15.30;99.90;;;;;;5025412;28;20199;-44
2022/10/26 10:46:01;;;;;;;3.47;2.10;;;15.30;99.90;;;;;;5035155;28;20213;-46
2022/10/26 10:48:29;;;;;;;3.13;2.63;;;15.30;99.90;;;;;;5016889;28;20599;-43
2022/10/26 10:50:58;;;;;;;5.00;2.90;;;15.40;99.90;;;;;;5032859;28;20191;-46
2022/10/26 10:53:30;;;;;;;4.57;2.67;;;15.40;99.90;;;;;;5030614;28;20211;-45
2022/10/26 10:56:23;;;;;;;9.47;2.93;;;15.50;99.90;;;;;;5026078;28;20212;-43
2022/10/26 10:59:03;;;;;;;3.37;2.63;;;15.60;99.90;;;;;;5030538;28;20229;-42
2022/10/26 11:01:37;;;;;;;5.87;2.97;;;15.60;99.90;;;;;;5030031;28;20571;-44
2022/10/26 11:04:22;;;;;;;5.83;2.63;;;15.60;99.90;;;;;;5016517;28;20222;-43
2022/10/26 11:06:50;;;;;;;4.20;2.87;;;15.70;99.90;;;;;;5030276;28;20214;-44
2022/10/26 11:09:21;;;;;;;5.30;2.97;;;15.70;99.90;;;;;;5027098;28;20201;-43
2022/10/26 11:11:53;;;;;;;6.53;3.10;;;15.70;99.90;;;;;;5032137;28;20230;-43
2022/10/26 11:14:25;;;;;;;5.40;2.97;;;15.80;99.90;;;;;;5018924;28;20203;-46
2022/10/26 11:16:56;;;;;;;2.87;2.60;;;15.80;99.90;;;;;;5032017;28;20895;-44
2022/10/26 11:19:29;;;;;;;6.90;2.43;;;15.80;99.90;;;;;;5020955;28;20579;-43
2022/10/26 11:21:56;;;;;;;3.93;2.93;;;15.90;99.90;;;;;;5028618;28;23041;-41
2022/10/26 11:24:26;;;;;;;3.83;2.90;;;15.90;99.90;;;;;;5039219;28;20656;-44
2022/10/26 11:26:59;;;;;;;3.20;2.60;;;16.00;99.90;;;;;;5035404;28;20191;-44
2022/10/26 11:29:35;;;;;;;3.63;2.53;;;16.00;99.90;;;;;;5031463;28;20206;-43
2022/10/26 11:32:12;;;;;;;4.20;2.70;;;16.10;99.90;;;;;;5038812;28;20723;-44
2022/10/26 11:34:44;;;;;;;2.90;2.70;;;16.20;99.90;;;;;;5019819;28;20203;-42
2022/10/26 11:37:16;;;;;;;5.33;2.80;;;16.20;99.90;;;;;;5023625;28;20722;-48
2022/10/26 11:39:46;;;;;;;4.67;2.90;;;16.20;99.90;;;;;;5035223;28;20215;-47
2022/10/26 11:42:26;;;;;;;3.23;2.50;;;16.20;99.90;;;;;;5038557;28;20251;-42
2022/10/26 11:45:01;;;;;;;3.63;2.70;;;16.30;99.90;;;;;;5022813;28;20278;-43
2022/10/26 11:47:35;;;;;;;3.23;2.57;;;16.30;99.90;;;;;;5038367;28;20686;-47
2022/10/26 11:50:06;;;;;;;2.90;2.60;;;16.40;99.90;;;;;;5023216;28;20206;-42
2022/10/26 11:52:40;;;;;;;5.20;2.53;;;16.50;99.90;;;;;;5028052;28;20703;-45
2022/10/26 11:55:10;;;;;;;4.50;2.70;;;16.50;99.90;;;;;;5034277;28;20679;-43
2022/10/26 11:57:38;;;;;;;4.50;2.90;;;16.60;99.90;;;;;;5035478;28;20203;-44
2022/10/26 12:00:08;;;;;;;4.67;3.00;;;16.70;99.90;;;;;;5028151;28;20223;-42
2022/10/26 12:02:39;;;;;;;4.10;3.13;;;16.70;99.90;;;;;;5035085;28;20224;-42
2022/10/26 12:05:11;;;;;;;5.53;3.33;;;;;;;;;;5023259;28;20215;-43
2022/10/26 12:07:40;;;;;;;5.90;3.40;;;16.90;99.90;;;;;;5026403;28;20207;-45
2022/10/26 12:10:14;;;;;;;3.80;3.37;;;16.90;99.90;;;;;;5028075;28;20200;-41
2022/10/26 12:12:47;;;;;;;6.20;3.50;;;17.00;99.90;;;;;;5034893;28;20227;-43
2022/10/26 12:15:21;;;;;;;3.40;3.10;;;17.00;99.90;;;;;;5028697;28;20200;-43
2022/10/26 12:17:53;;;;;;;4.27;2.97;;;17.00;99.90;;;;;;5037983;28;20501;-42
2022/10/26 12:20:55;;;;;;;4.10;2.90;;;17.00;99.90;;;;;;5029989;28;20223;-45
2022/10/26 12:23:23;;;;;;;5.37;3.73;;;17.00;99.90;;;;;;5036945;28;20238;-40
2022/10/26 12:25:50;;;;;;;4.43;2.90;;;17.00;99.90;;;;;;5035695;28;20207;-42
2022/10/26 12:28:41;;;;;;;5.40;3.40;;;17.00;99.90;;;;;;5041248;28;20239;-42
2022/10/26 12:31:43;;;;;;;6.97;3.33;;;17.00;99.90;;;;;;5031651;28;20699;-41
2022/10/26 12:34:13;;;;;;;7.70;3.20;;;17.10;99.90;;;;;;5034124;28;20226;-41
2022/10/26 12:36:50;;;;;;;3.20;2.77;;;17.20;99.90;;;;;;5022945;28;20266;-42
2022/10/26 12:39:28;;;;;;;3.57;2.77;;;17.30;99.90;;;;;;5036631;28;20309;-44
2022/10/26 12:41:58;;;;;;;7.13;3.10;;;17.40;99.90;;;;;;5027708;28;20225;-42
2022/10/26 12:44:37;;;;;;;7.87;3.23;;;17.50;99.90;;;;;;5031604;28;20206;-41
2022/10/26 12:47:06;;;;;;;9.03;3.80;;;17.50;99.90;;;;;;5029256;28;20210;-43
2022/10/26 12:50:02;;;;;;;3.07;2.70;;;17.60;99.90;;;;;;5037807;28;20194;-42
2022/10/26 12:52:46;;;;;;;5.37;2.87;;;17.60;99.90;;;;;;5023892;28;20219;-43
2022/10/26 12:55:18;;;;;;;5.73;2.80;;;;;;;;;;5025576;28;20251;-44
2022/10/26 12:57:55;;;;;;;3.33;2.80;;;17.80;99.90;;;;;;5025633;28;20194;-44
2022/10/26 13:00:25;;;;;;;4.97;2.40;;;17.80;99.90;;;;;;5035827;28;20219;-47
2022/10/26 13:03:10;;;;;;;7.53;3.20;;;17.90;99.90;;;;;;5030755;28;20243;-43
2022/10/26 13:06:16;;;;;;;7.17;2.83;;;17.90;99.90;;;;;;5037226;28;21083;-43